Time;durP1;ratioP1;P1;durP2;ratioP2;P2;SDS_P1;SDS_P2;PMS_P1;PMS_P2;Temp;Humidity;BMP_temperature;BMP_pressure;BME280_temperature;BME280_humidity;BME280_pressure;Samples;Min_cycle;Max_cycle;Signal;HPM_P1;HPM_P2
2021/12/25 00:01:28;;;;;;;12.95;8.82;;;;;;;;;;5012029;28;20199;-49
2021/12/25 00:03:55;;;;;;;11.20;7.97;;;;;;;;;;5013102;28;20160;-49
2021/12/25 00:06:21;;;;;;;12.88;9.20;;;;;;;;;;5012259;28;20259;-49
2021/12/25 00:08:47;;;;;;;12.90;9.73;;;;;;;;;;5013137;28;20227;-49
2021/12/25 00:11:13;;;;;;;13.53;9.63;;;;;;;;;;5012990;28;20168;-49
2021/12/25 00:13:39;;;;;;;16.38;10.38;;;;;;;;;;5012942;28;20395;-49
2021/12/25 00:16:06;;;;;;;16.90;10.70;;;;;;;;;;5012245;28;20647;-49
2021/12/25 00:18:32;;;;;;;13.82;9.30;;;;;;;;;;5012850;28;20226;-49
2021/12/25 00:20:58;;;;;;;21.00;9.80;;;;;;;;;;5012855;28;20259;-49
2021/12/25 00:23:24;;;;;;;15.00;10.50;;;;;;;;;;5012809;28;20573;-49
2021/12/25 00:26:05;;;;;;;14.43;10.03;;;;;;;;;;5011984;28;20426;-50
2021/12/25 00:33:58;;;;;;;14.00;10.88;;;;;;;;;;5012518;28;20718;-49
2021/12/25 00:36:22;;;;;;;13.60;10.40;;;;;;;;;;5011332;28;20218;-49
2021/12/25 00:38:50;;;;;;;14.15;9.15;;;;;;;;;;5012634;28;20169;-49
2021/12/25 00:41:17;;;;;;;12.88;9.50;;;;;;;;;;5012696;28;20591;-49
2021/12/25 00:43:43;;;;;;;11.45;8.60;;;;;;;;;;5012457;28;20180;-49
2021/12/25 00:46:10;;;;;;;13.60;9.70;;;;;;;;;;5011579;28;20203;-49
2021/12/25 00:48:36;;;;;;;13.27;10.15;;;;;;;;;;5012408;28;20200;-49
2021/12/25 00:51:02;;;;;;;14.50;9.73;;;;;;;;;;5012335;28;20621;-49
2021/12/25 00:53:28;;;;;;;12.95;9.57;;;;;;;;;;5012313;28;20200;-49
2021/12/25 00:55:54;;;;;;;11.17;8.80;;;;;;;;;;5011714;28;20180;-49
2021/12/25 00:58:20;;;;;;;16.60;10.80;;;;;;;;;;5011982;28;20887;-49
2021/12/25 01:00:46;;;;;;;12.63;8.83;;;;;;;;;;5011758;28;20950;-49
2021/12/25 01:03:12;;;;;;;11.63;9.60;;;;;;;;;;5012318;28;20462;-49
2021/12/25 01:05:38;;;;;;;11.10;9.47;;;;;;;;;;5011436;28;20899;-50
2021/12/25 01:08:04;;;;;;;13.80;10.20;;;;;;;;;;5012253;28;20831;-49
2021/12/25 01:10:32;;;;;;;11.93;9.00;;;;;;;;;;5012147;28;20878;-49
2021/12/25 01:13:27;;;;;;;12.13;8.90;;;;;;;;;;5012072;28;20195;-50
2021/12/25 01:19:01;;;;;;;12.43;9.15;;;;;;;;;;5012454;28;20231;-49
2021/12/25 01:33:03;;;;;;;16.95;11.48;;;;;;;;;;5012145;28;20295;-49
2021/12/25 01:48:37;;;;;;;19.23;11.95;;;;;;;;;;5011770;28;20182;-50
2021/12/25 01:51:03;;;;;;;15.13;11.43;;;;;;;;;;5011866;28;20296;-49
2021/12/25 01:53:29;;;;;;;14.35;11.68;;;;;;;;;;5011660;28;20239;-49
2021/12/25 01:55:57;;;;;;;18.30;12.45;;;;;;;;;;5011039;28;20664;-50
2021/12/25 01:58:23;;;;;;;15.75;11.35;;;;;;;;;;5011794;28;20157;-49
2021/12/25 02:00:54;;;;;;;16.98;12.30;;;;;;;;;;5011690;28;20545;-49
2021/12/25 02:06:23;;;;;;;17.50;11.77;;;;;;;;;;5010965;28;20251;-49
2021/12/25 02:08:49;;;;;;;20.13;12.13;;;;;;;;;;5012041;28;20270;-49
2021/12/25 02:11:15;;;;;;;16.73;11.70;;;;;;;;;;5013880;28;20216;-49
2021/12/25 02:13:42;;;;;;;15.75;11.65;;;;;;;;;;5015249;28;20494;-49
2021/12/25 02:16:13;;;;;;;18.70;12.60;;;;;;;;;;5014490;28;20187;-49
2021/12/25 02:21:35;;;;;;;16.75;11.68;;;;;;;;;;5015283;28;20179;-49
2021/12/25 02:24:01;;;;;;;15.25;11.25;;;;;;;;;;5015287;28;20172;-49
2021/12/25 02:26:27;;;;;;;17.05;11.90;;;;;;;;;;5013961;28;20188;-52
2021/12/25 02:28:53;;;;;;;19.55;12.40;;;;;;;;;;5014873;28;20216;-49
2021/12/25 02:31:20;;;;;;;16.13;12.18;;;;;;;;;;5014713;28;20167;-50
2021/12/25 02:33:46;;;;;;;16.27;11.98;;;;;;;;;;5014887;28;20170;-49
2021/12/25 02:36:13;;;;;;;18.03;11.83;;;;;;;;;;5014203;28;20283;-49
2021/12/25 02:38:39;;;;;;;18.88;12.85;;;;;;;;;;5014810;28;20403;-49
2021/12/25 02:41:06;;;;;;;18.38;12.57;;;;;;;;;;5014748;28;20203;-49
2021/12/25 02:43:32;;;;;;;20.15;12.88;;;;;;;;;;5014806;28;20187;-49
2021/12/25 02:46:03;;;;;;;18.40;12.65;;;;;;;;;;5013948;28;20188;-49
2021/12/25 02:48:31;;;;;;;19.75;14.18;;;;;;;;;;5015002;28;20173;-49
2021/12/25 02:50:57;;;;;;;22.25;13.50;;;;;;;;;;5014769;28;20203;-49
2021/12/25 02:53:23;;;;;;;23.50;13.43;;;;;;;;;;5014583;28;20299;-50
2021/12/25 02:55:49;;;;;;;16.42;12.88;;;;;;;;;;5013765;28;20196;-49
2021/12/25 02:58:19;;;;;;;13.30;10.00;;;;;;;;;;5014381;28;20164;-49
2021/12/25 03:00:48;;;;;;;19.17;12.75;;;;;;;;;;5014507;28;20395;-48
2021/12/25 03:03:14;;;;;;;21.52;12.27;;;;;;;;;;5014321;28;20702;-49
2021/12/25 03:05:40;;;;;;;22.05;13.65;;;;;;;;;;5013532;28;20164;-49
2021/12/25 03:08:07;;;;;;;19.85;13.13;;;;;;;;;;5014280;28;20619;-49
2021/12/25 03:10:34;;;;;;;21.05;13.52;;;;;;;;;;5014391;28;20176;-49
2021/12/25 03:13:16;;;;;;;23.67;13.38;;;;;;;;;;5014239;28;20188;-49
2021/12/25 03:15:47;;;;;;;18.30;13.07;;;;;;;;;;5013561;28;20190;-49
2021/12/25 03:18:14;;;;;;;17.80;12.88;;;;;;;;;;5014167;28;20601;-49
2021/12/25 03:20:44;;;;;;;19.08;13.65;;;;;;;;;;5012978;28;20247;-48
2021/12/25 03:23:11;;;;;;;22.58;13.02;;;;;;;;;;5013555;28;20629;-48
2021/12/25 03:25:37;;;;;;;16.88;12.70;;;;;;;;;;5013151;28;20714;-49
2021/12/25 03:28:03;;;;;;;18.43;12.87;;;;;;;;;;5013884;28;20215;-49
2021/12/25 03:30:35;;;;;;;20.83;13.07;;;;;;;;;;5014046;28;20950;-49
2021/12/25 03:33:01;;;;;;;21.13;12.82;;;;;;;;;;5013984;28;20492;-50
2021/12/25 03:35:27;;;;;;;20.93;13.80;;;;;;;;;;5012992;28;20219;-48
2021/12/25 03:37:53;;;;;;;21.93;13.73;;;;;;;;;;5013831;28;20438;-49
2021/12/25 03:40:19;;;;;;;17.05;11.50;;;;;;;;;;5013820;28;20940;-49
2021/12/25 03:42:45;;;;;;;17.43;12.83;;;;;;;;;;5013693;28;20328;-49
2021/12/25 03:45:11;;;;;;;21.50;13.23;;;;;;;;;;5012961;28;20466;-48
2021/12/25 03:47:39;;;;;;;20.30;13.00;;;;;;;;;;5013442;28;20443;-49
2021/12/25 03:58:35;;;;;;;21.50;12.48;;;;;;;;;;5013366;28;20544;-49
2021/12/25 04:01:22;;;;;;;21.95;12.73;;;;;;;;;;5013386;28;20214;-49
2021/12/25 04:04:02;;;;;;;21.60;14.35;;;;;;;;;;5013463;28;20183;-49
2021/12/25 04:06:28;;;;;;;19.13;13.00;;;;;;;;;;5012606;28;20219;-49
2021/12/25 04:08:56;;;;;;;19.63;11.77;;;;;;;;;;5013178;28;20207;-48
2021/12/25 04:11:28;;;;;;;23.40;14.25;;;;;;;;;;5012991;28;20407;-49
2021/12/25 04:13:55;;;;;;;20.25;13.05;;;;;;;;;;5013209;28;20637;-49
2021/12/25 04:16:21;;;;;;;22.38;12.63;;;;;;;;;;5012393;28;20258;-49
2021/12/25 04:18:47;;;;;;;16.40;11.60;;;;;;;;;;5013262;28;20247;-49
2021/12/25 04:21:13;;;;;;;18.52;12.38;;;;;;;;;;5012937;28;20704;-49
2021/12/25 04:23:41;;;;;;;16.43;11.43;;;;;;;;;;5012930;28;20254;-49
2021/12/25 04:26:07;;;;;;;20.05;12.55;;;;;;;;;;5012267;28;20477;-48
2021/12/25 04:28:44;;;;;;;17.58;12.20;;;;;;;;;;5012856;28;20212;-49
2021/12/25 04:48:00;;;;;;;15.32;10.98;;;;;;;;;;5016198;28;20750;-49
2021/12/25 05:04:00;;;;;;;17.85;10.60;;;;;;;;;;5017869;28;20230;-50
2021/12/25 05:06:26;;;;;;;17.40;10.75;;;;;;;;;;5016866;28;20693;-49
2021/12/25 05:08:54;;;;;;;17.70;11.00;;;;;;;;;;5017500;28;20214;-49
2021/12/25 05:11:20;;;;;;;16.13;11.88;;;;;;;;;;5017291;28;20201;-49
2021/12/25 05:13:49;;;;;;;17.85;11.07;;;;;;;;;;5016540;28;20211;-49
2021/12/25 05:16:15;;;;;;;20.52;11.43;;;;;;;;;;5015787;28;20187;-50
2021/12/25 05:18:41;;;;;;;14.18;10.63;;;;;;;;;;5017515;28;20179;-49
2021/12/25 05:21:07;;;;;;;15.02;10.02;;;;;;;;;;5017530;28;20207;-49
2021/12/25 05:23:33;;;;;;;14.60;9.80;;;;;;;;;;5017766;28;20184;-49
2021/12/25 05:25:59;;;;;;;10.55;8.75;;;;;;;;;;5016066;28;20180;-49
2021/12/25 05:28:27;;;;;;;13.23;9.80;;;;;;;;;;5017235;28;20674;-50
2021/12/25 05:30:54;;;;;;;13.50;10.35;;;;;;;;;;5016876;28;20431;-49
2021/12/25 05:33:22;;;;;;;13.10;10.20;;;;;;;;;;5016937;28;20196;-50
2021/12/25 05:35:48;;;;;;;12.40;9.57;;;;;;;;;;5015793;28;20188;-49
2021/12/25 05:38:15;;;;;;;13.48;10.65;;;;;;;;;;5017210;28;20202;-49
2021/12/25 05:40:42;;;;;;;12.52;9.32;;;;;;;;;;5016419;28;20544;-49
2021/12/25 05:43:08;;;;;;;11.95;9.00;;;;;;;;;;5016588;28;20218;-49
2021/12/25 05:45:34;;;;;;;9.70;7.32;;;;;;;;;;5017340;28;20200;-49
2021/12/25 05:48:00;;;;;;;14.90;10.35;;;;;;;;;;5020052;28;20168;-50
2021/12/25 05:50:26;;;;;;;13.17;9.40;;;;;;;;;;5020329;28;20176;-50
2021/12/25 05:52:54;;;;;;;13.10;9.30;;;;;;;;;;5020121;28;20442;-49
2021/12/25 05:55:20;;;;;;;14.48;9.55;;;;;;;;;;5019986;28;20180;-49
2021/12/25 05:57:46;;;;;;;12.67;10.07;;;;;;;;;;5019680;28;20272;-49
2021/12/25 06:00:13;;;;;;;11.50;8.30;;;;;;;;;;5020359;28;20409;-49
2021/12/25 06:02:39;;;;;;;14.38;8.65;;;;;;;;;;5020581;28;20407;-49
2021/12/25 06:05:06;;;;;;;11.17;9.93;;;;;;;;;;5019964;28;20176;-49
2021/12/25 06:07:32;;;;;;;17.90;9.13;;;;;;;;;;5020253;28;20424;-49
2021/12/25 06:09:59;;;;;;;17.83;10.60;;;;;;;;;;5019177;28;20184;-49
2021/12/25 06:12:26;;;;;;;10.85;9.07;;;;;;;;;;5020118;28;20207;-49
2021/12/25 06:14:54;;;;;;;12.02;8.05;;;;;;;;;;5019397;28;20171;-49
2021/12/25 06:17:20;;;;;;;11.38;8.60;;;;;;;;;;5019517;28;20184;-49
2021/12/25 06:19:46;;;;;;;12.32;7.25;;;;;;;;;;5019814;28;20165;-49
2021/12/25 06:22:12;;;;;;;11.85;9.50;;;;;;;;;;5020463;28;20195;-49
2021/12/25 06:24:40;;;;;;;9.63;8.63;;;;;;;;;;5019249;28;20628;-50
2021/12/25 06:27:06;;;;;;;9.23;7.63;;;;;;;;;;5020212;28;20439;-49
2021/12/25 06:29:35;;;;;;;10.27;7.60;;;;;;;;;;5020121;28;20199;-48
2021/12/25 06:32:01;;;;;;;9.73;7.40;;;;;;;;;;5019718;28;20193;-49
2021/12/25 06:34:27;;;;;;;11.90;9.60;;;;;;;;;;5019398;28;20171;-49
2021/12/25 06:36:53;;;;;;;17.70;8.37;;;;;;;;;;5017881;28;20415;-49
2021/12/25 06:39:19;;;;;;;11.07;9.00;;;;;;;;;;5019880;28;20404;-49
2021/12/25 06:41:45;;;;;;;13.80;8.77;;;;;;;;;;5019793;28;20802;-49
2021/12/25 06:44:11;;;;;;;12.55;8.82;;;;;;;;;;5019265;28;20408;-49
2021/12/25 06:46:38;;;;;;;9.40;7.43;;;;;;;;;;5018697;28;20640;-49
2021/12/25 06:49:04;;;;;;;10.40;8.57;;;;;;;;;;5019191;28;20487;-49
2021/12/25 06:51:34;;;;;;;12.20;9.70;;;;;;;;;;5019507;28;20199;-49
2021/12/25 06:54:01;;;;;;;10.85;9.63;;;;;;;;;;5019447;28;20434;-49
2021/12/25 06:56:27;;;;;;;13.35;9.43;;;;;;;;;;5017076;28;20184;-48
2021/12/25 06:58:53;;;;;;;14.95;9.63;;;;;;;;;;5018399;28;20204;-49
2021/12/25 07:01:19;;;;;;;10.93;8.50;;;;;;;;;;5019253;28;20168;-49
2021/12/25 07:03:45;;;;;;;12.70;9.80;;;;;;;;;;5018703;28;20411;-49
2021/12/25 07:06:11;;;;;;;10.83;9.13;;;;;;;;;;5018171;28;20415;-49
2021/12/25 07:08:42;;;;;;;12.23;9.30;;;;;;;;;;5018500;28;20403;-49
2021/12/25 07:11:08;;;;;;;10.77;8.32;;;;;;;;;;5018341;28;20767;-49
2021/12/25 07:13:34;;;;;;;12.63;8.80;;;;;;;;;;5019061;28;20200;-49
2021/12/25 07:16:00;;;;;;;14.13;9.93;;;;;;;;;;5017801;28;20421;-50
2021/12/25 07:18:26;;;;;;;15.85;9.40;;;;;;;;;;5017804;28;20199;-49
2021/12/25 07:20:52;;;;;;;13.38;8.73;;;;;;;;;;5017551;28;20227;-49
2021/12/25 07:23:18;;;;;;;11.03;9.40;;;;;;;;;;5018259;28;20172;-49
2021/12/25 07:25:46;;;;;;;12.93;9.15;;;;;;;;;;5017543;28;20419;-49
2021/12/25 07:28:11;;;;;;;11.73;9.07;;;;;;;;;;5017636;28;20711;-49
2021/12/25 07:30:37;;;;;;;14.73;10.17;;;;;;;;;;5017842;28;20207;-49
2021/12/25 07:33:04;;;;;;;12.63;9.30;;;;;;;;;;5017003;28;20451;-49
2021/12/25 07:35:30;;;;;;;15.85;9.77;;;;;;;;;;5017411;28;20875;-50
2021/12/25 07:37:56;;;;;;;11.68;9.15;;;;;;;;;;5017414;28;20168;-49
2021/12/25 07:40:22;;;;;;;13.88;8.00;;;;;;;;;;5017851;28;20621;-49
2021/12/25 07:42:48;;;;;;;14.20;9.05;;;;;;;;;;5018526;28;20226;-50
2021/12/25 07:45:15;;;;;;;12.20;9.60;;;;;;;;;;5017265;28;20539;-49
2021/12/25 07:47:47;;;;;;;14.55;9.70;;;;;;;;;;5017937;28;20419;-49
2021/12/25 07:50:14;;;;;;;13.95;10.35;;;;;;;;;;5017521;28;20249;-50
2021/12/25 07:52:40;;;;;;;14.25;9.93;;;;;;;;;;5017538;28;20657;-49
2021/12/25 07:55:07;;;;;;;14.10;11.05;;;;;;;;;;5016369;28;20164;-49
2021/12/25 07:57:33;;;;;;;15.02;9.52;;;;;;;;;;5017145;28;20188;-49
2021/12/25 07:59:59;;;;;;;11.53;9.10;;;;;;;;;;5017419;28;20175;-49
2021/12/25 08:02:25;;;;;;;14.07;10.20;;;;;;;;;;5017643;28;20407;-49
2021/12/25 08:04:51;;;;;;;17.83;10.73;;;;;;;;;;5016483;28;20417;-48
2021/12/25 08:07:17;;;;;;;15.30;10.67;;;;;;;;;;5016826;28;20192;-49
2021/12/25 08:09:43;;;;;;;11.80;9.70;;;;;;;;;;5017737;28;20422;-48
2021/12/25 08:12:10;;;;;;;9.27;8.02;;;;;;;;;;5016879;28;20455;-49
2021/12/25 08:14:36;;;;;;;14.82;8.23;;;;;;;;;;5017027;28;20187;-49
2021/12/25 08:17:05;;;;;;;14.77;9.30;;;;;;;;;;5016228;28;20672;-49
2021/12/25 08:19:31;;;;;;;13.82;9.02;;;;;;;;;;5017505;28;20259;-51
2021/12/25 08:21:57;;;;;;;11.87;8.80;;;;;;;;;;5017052;28;20615;-50
2021/12/25 08:24:23;;;;;;;11.57;9.27;;;;;;;;;;5016798;28;20410;-49
2021/12/25 08:26:50;;;;;;;20.23;10.10;;;;;;;;;;5015977;28;20421;-49
2021/12/25 08:29:16;;;;;;;9.63;8.52;;;;;;;;;;5017439;28;20434;-49
2021/12/25 08:31:42;;;;;;;12.37;8.73;;;;;;;;;;5016662;28;20177;-49
2021/12/25 08:34:09;;;;;;;12.75;9.48;;;;;;;;;;5016725;28;20442;-49
2021/12/25 08:36:35;;;;;;;11.07;7.90;;;;;;;;;;5016025;28;20188;-49
2021/12/25 08:39:01;;;;;;;12.00;8.55;;;;;;;;;;5016764;28;20251;-49
2021/12/25 08:41:31;;;;;;;7.75;6.55;;;;;;;;;;5016461;28;20172;-50
2021/12/25 08:44:04;;;;;;;9.93;7.40;;;;;;;;;;5016486;28;20570;-49
2021/12/25 08:46:45;;;;;;;11.60;6.82;;;;;;;;;;5015501;28;20188;-49
2021/12/25 08:49:17;;;;;;;7.10;5.97;;;;;;;;;;5016363;28;20509;-49
2021/12/25 08:51:44;;;;;;;9.30;7.20;;;;;;;;;;5016128;28;20176;-49
2021/12/25 08:54:11;;;;;;;7.93;6.65;;;;;;;;;;5015932;28;20651;-49
2021/12/25 08:56:37;;;;;;;9.50;6.95;;;;;;;;;;5014995;28;20207;-49
2021/12/25 08:59:03;;;;;;;11.18;7.38;;;;;;;;;;5016195;28;20168;-48
2021/12/25 09:01:29;;;;;;;9.30;5.55;;;;;;;;;;5015972;28;20164;-49
2021/12/25 09:03:56;;;;;;;5.38;4.82;;;;;;;;;;5016420;28;20168;-49
2021/12/25 09:06:25;;;;;;;10.65;5.63;;;;;;;;;;5015068;28;20741;-51
2021/12/25 09:08:51;;;;;;;6.72;6.07;;;;;;;;;;5016020;28;20175;-49
2021/12/25 09:11:18;;;;;;;11.27;6.87;;;;;;;;;;5015445;28;20168;-49
2021/12/25 09:13:44;;;;;;;6.20;5.60;;;;;;;;;;5016215;28;20482;-49
2021/12/25 09:16:10;;;;;;;9.18;5.43;;;;;;;;;;5015197;28;20212;-49
2021/12/25 09:18:36;;;;;;;7.87;4.80;;;;;;;;;;5015752;28;20194;-49
2021/12/25 09:21:02;;;;;;;5.30;4.78;;;;;;;;;;5015509;28;20481;-49
2021/12/25 09:23:28;;;;;;;3.83;3.47;;;;;;;;;;5015645;28;20168;-49
2021/12/25 09:25:54;;;;;;;6.40;5.13;;;;;;;;;;5014881;28;20192;-49
2021/12/25 09:28:20;;;;;;;5.43;4.90;;;;;;;;;;5015570;28;20202;-49
2021/12/25 09:30:46;;;;;;;5.47;3.80;;;;;;;;;;5015702;28;20399;-49
2021/12/25 09:33:13;;;;;;;5.00;4.38;;;;;;;;;;5015305;28;20660;-49
2021/12/25 09:35:39;;;;;;;4.70;4.30;;;;;;;;;;5013785;28;20196;-49
2021/12/25 09:38:06;;;;;;;6.30;4.13;;;;;;;;;;5016184;28;20169;-51
2021/12/25 09:40:32;;;;;;;5.05;4.22;;;;;;;;;;5016129;28;20907;-49
2021/12/25 09:42:58;;;;;;;4.97;4.35;;;;;;;;;;5016234;28;20578;-50
2021/12/25 09:45:24;;;;;;;5.20;3.80;;;;;;;;;;5015103;28;20171;-48
2021/12/25 09:47:50;;;;;;;3.97;3.67;;;;;;;;;;5015475;28;20560;-49
2021/12/25 09:50:16;;;;;;;5.13;4.15;;;;;;;;;;5015104;28;20396;-49
2021/12/25 09:52:43;;;;;;;4.82;4.00;;;;;;;;;;5015081;28;20203;-49
2021/12/25 09:55:10;;;;;;;4.80;4.10;;;;;;;;;;5015419;28;20169;-50
2021/12/25 09:57:36;;;;;;;3.92;3.38;;;;;;;;;;5014238;28;20207;-49
2021/12/25 10:00:09;;;;;;;4.95;4.45;;;;;;;;;;5016101;28;20252;-49
2021/12/25 10:02:58;;;;;;;3.40;3.10;;;;;;;;;;5014754;28;20176;-49
2021/12/25 10:05:24;;;;;;;4.40;4.00;;;;;;;;;;5012219;28;20183;-48
2021/12/25 10:08:00;;;;;;;4.05;3.60;;;;;;;;;;5014025;28;20200;-49
2021/12/25 10:10:36;;;;;;;3.60;3.30;;;;;;;;;;5013730;28;20168;-49
2021/12/25 10:13:03;;;;;;;6.90;3.40;;;;;;;;;;5013258;28;20199;-49
2021/12/25 10:15:30;;;;;;;7.65;3.38;;;;;;;;;;5013149;28;20168;-50
2021/12/25 10:17:59;;;;;;;3.40;3.10;;;;;;;;;;5013386;28;20165;-49
2021/12/25 10:20:31;;;;;;;3.28;3.08;;;;;;;;;;5013659;28;20172;-49
2021/12/25 10:23:01;;;;;;;4.15;3.13;;;;;;;;;;5013673;28;20215;-49
2021/12/25 10:25:32;;;;;;;3.83;3.17;;;;;;;;;;5012447;28;20182;-49
2021/12/25 10:27:59;;;;;;;2.60;2.40;;;;;;;;;;5013020;28;20185;-49
2021/12/25 10:30:25;;;;;;;3.40;3.08;;;;;;;;;;5013133;28;20205;-49
2021/12/25 10:32:52;;;;;;;3.15;2.80;;;;;;;;;;5016489;28;20770;-50
2021/12/25 10:35:19;;;;;;;3.95;3.30;;;;;;;;;;5016267;28;20541;-49
2021/12/25 10:37:47;;;;;;;2.85;2.63;;;;;;;;;;5017083;28;20188;-49
2021/12/25 10:40:36;;;;;;;3.83;3.53;;;;;;;;;;5017092;28;20172;-50
2021/12/25 10:43:04;;;;;;;3.60;3.15;;;;;;;;;;5017451;28;20176;-49
2021/12/25 10:45:32;;;;;;;6.50;3.47;;;;;;;;;;5016186;28;20165;-48
2021/12/25 10:48:09;;;;;;;2.88;2.67;;;;;;;;;;5015848;28;20183;-49
2021/12/25 10:50:40;;;;;;;2.75;2.55;;;;;;;;;;5014775;28;20526;-49
2021/12/25 10:53:26;;;;;;;3.33;3.03;;;;;;;;;;5014422;28;20188;-50
2021/12/25 10:55:53;;;;;;;2.90;2.70;;;;;;;;;;5013613;28;20291;-49
2021/12/25 10:58:22;;;;;;;3.53;3.22;;;;;;;;;;5014510;28;20636;-48
2021/12/25 11:00:54;;;;;;;4.18;3.42;;;;;;;;;;5014509;28;20172;-48
2021/12/25 11:03:27;;;;;;;4.65;3.20;;;;;;;;;;5013837;28;20641;-49
2021/12/25 11:05:53;;;;;;;2.97;2.78;;;;;;;;;;5010984;28;20208;-49
2021/12/25 11:08:20;;;;;;;2.83;2.63;;;;;;;;;;5014158;28;20775;-49
2021/12/25 11:10:46;;;;;;;4.10;2.83;;;;;;;;;;5014135;28;20439;-48
2021/12/25 11:13:23;;;;;;;3.80;3.00;;;;;;;;;;5013971;28;20282;-49
2021/12/25 11:15:50;;;;;;;3.28;2.97;;;;;;;;;;5013269;28;20434;-48
2021/12/25 11:18:17;;;;;;;3.42;3.22;;;;;;;;;;5013904;28;20243;-50
2021/12/25 11:20:46;;;;;;;3.05;2.75;;;;;;;;;;5014017;28;20191;-49
2021/12/25 11:23:12;;;;;;;3.28;3.05;;;;;;;;;;5013991;28;20377;-48
2021/12/25 11:25:40;;;;;;;7.10;4.28;;;;;;;;;;5013019;28;20180;-49
2021/12/25 11:28:09;;;;;;;3.45;3.10;;;;;;;;;;5013588;28;20192;-48
2021/12/25 11:30:36;;;;;;;4.80;3.03;;;;;;;;;;5014926;28;20520;-49
2021/12/25 11:33:02;;;;;;;2.92;2.67;;;;;;;;;;5023146;28;20196;-48
2021/12/25 11:35:31;;;;;;;3.00;2.80;;;;;;;;;;5032472;28;20636;-48
2021/12/25 11:37:58;;;;;;;3.30;3.00;;;;;;;;;;5033315;28;20166;-50
2021/12/25 11:40:25;;;;;;;2.70;2.60;;;;;;;;;;5033473;28;20167;-49
2021/12/25 11:42:57;;;;;;;3.50;3.20;;;;;;;;;;5035523;28;20174;-50
2021/12/25 11:45:28;;;;;;;7.50;3.58;;;;;;;;;;5037201;28;20175;-49
2021/12/25 11:47:56;;;;;;;7.53;2.53;;;;;;;;;;5037183;28;20167;-49
2021/12/25 11:50:34;;;;;;;5.13;2.80;;;;;;;;;;5038053;28;20168;-51
2021/12/25 11:53:20;;;;;;;3.00;2.80;;;;;;;;;;5036903;28;20191;-49
2021/12/25 11:56:14;;;;;;;3.20;2.90;;;;;;;;;;5035014;28;20255;-49
2021/12/25 11:58:39;;;;;;;3.35;3.05;;;;;;;;;;5036546;28;20202;-49
2021/12/25 12:01:17;;;;;;;2.92;2.67;;;;;;;;;;5035233;28;20631;-48
2021/12/25 12:03:46;;;;;;;3.22;2.92;;;;;;;;;;5034975;28;20698;-48
2021/12/25 12:06:13;;;;;;;3.35;2.30;;;;;;;;;;5034085;28;20277;-49
2021/12/25 12:08:54;;;;;;;3.55;2.58;;;;;;;;;;5035325;28;20177;-50
2021/12/25 12:11:27;;;;;;;2.17;2.08;;;;;;;;;;5035106;28;20178;-50
2021/12/25 12:14:12;;;;;;;2.67;2.50;;;;;;;;;;5035535;28;20659;-49
2021/12/25 12:16:39;;;;;;;2.40;2.20;;;;;;;;;;5035544;28;20192;-50
2021/12/25 12:19:25;;;;;;;2.90;2.70;;;;;;;;;;5036089;28;20174;-50
2021/12/25 12:21:51;;;;;;;2.67;2.45;;;;;;;;;;5035964;28;20183;-49
2021/12/25 12:24:41;;;;;;;2.50;2.30;;;;;;;;;;5035707;28;20171;-49
2021/12/25 12:27:08;;;;;;;2.92;1.92;;;;;;;;;;5035434;28;20427;-48
2021/12/25 12:29:37;;;;;;;2.05;1.95;;;;;;;;;;5036199;28;20289;-50
2021/12/25 12:32:05;;;;;;;2.83;2.28;;;;;;;;;;5035840;28;20210;-49
2021/12/25 12:34:31;;;;;;;2.42;2.22;;;;;;;;;;5034330;28;20160;-49
2021/12/25 12:37:16;;;;;;;2.10;2.00;;;;;;;;;;5035428;28;20647;-49
2021/12/25 12:39:41;;;;;;;2.88;1.85;;;;;;;;;;5033607;28;20435;-49
2021/12/25 12:42:12;;;;;;;2.70;2.47;;;;;;;;;;5034182;28;20179;-49
2021/12/25 12:44:39;;;;;;;2.47;2.28;;;;;;;;;;5034045;28;20399;-50
2021/12/25 12:47:12;;;;;;;2.38;2.28;;;;;;;;;;5020154;28;20656;-48
2021/12/25 12:49:50;;;;;;;2.38;2.10;;;;;;;;;;5015786;28;20164;-49
2021/12/25 12:52:24;;;;;;;2.80;2.08;;;;;;;;;;5015152;28;20231;-50
2021/12/25 12:54:58;;;;;;;2.20;2.10;;;;;;;;;;5012999;28;20165;-49
2021/12/25 12:57:32;;;;;;;3.22;2.38;;;;;;;;;;5014696;28;20275;-50
2021/12/25 13:00:05;;;;;;;2.40;2.20;;;;;;;;;;5030601;28;20172;-49
2021/12/25 13:02:32;;;;;;;2.08;1.98;;;;;;;;;;5033914;28;20542;-49
2021/12/25 13:05:01;;;;;;;2.15;1.95;;;;;;;;;;5031629;28;20167;-49
2021/12/25 13:07:29;;;;;;;5.45;2.33;;;;;;;;;;5015597;28;20216;-49
2021/12/25 13:10:34;;;;;;;7.45;2.30;;;;;;;;;;5013543;28;20534;-49
2021/12/25 13:13:06;;;;;;;2.33;2.22;;;;;;;;;;5013217;28;20212;-48
2021/12/25 13:15:34;;;;;;;2.10;1.90;;;;;;;;;;5010903;28;20169;-48
2021/12/25 13:18:04;;;;;;;1.90;1.80;;;;;;;;;;5012909;28;20160;-49
2021/12/25 13:20:35;;;;;;;2.25;2.13;;;;;;;;;;5011494;28;20222;-50
2021/12/25 13:23:02;;;;;;;2.17;1.90;;;;;;;;;;5013013;28;20291;-48
2021/12/25 13:25:29;;;;;;;2.45;1.70;;;;;;;;;;5012153;28;20168;-49
2021/12/25 13:28:15;;;;;;;2.05;1.95;;;;;;;;;;5012899;28;20180;-49
2021/12/25 13:30:43;;;;;;;3.97;1.80;;;;;;;;;;5013245;28;20179;-49
2021/12/25 13:33:13;;;;;;;2.00;1.90;;;;;;;;;;5013385;28;20192;-49
2021/12/25 13:35:43;;;;;;;1.65;1.55;;;;;;;;;;5013390;28;20287;-49
2021/12/25 13:38:09;;;;;;;1.65;1.55;;;;;;;;;;5013683;28;20540;-49
2021/12/25 13:40:37;;;;;;;2.40;2.30;;;;;;;;;;5013414;28;20179;-48
2021/12/25 13:43:05;;;;;;;2.17;2.03;;;;;;;;;;5013176;28;20173;-49
2021/12/25 13:45:31;;;;;;;4.18;1.83;;;;;;;;;;5012597;28;20561;-49
2021/12/25 13:47:58;;;;;;;2.20;2.10;;;;;;;;;;5013425;28;20248;-49
2021/12/25 13:50:24;;;;;;;2.05;1.95;;;;;;;;;;5022543;28;20176;-49
2021/12/25 13:52:55;;;;;;;1.70;1.60;;;;;;;;;;5034485;28;20231;-48
2021/12/25 13:55:25;;;;;;;1.65;1.55;;;;;;;;;;5034286;28;20428;-49
2021/12/25 13:57:56;;;;;;;3.00;2.28;;;;;;;;;;5035124;28;20183;-50
2021/12/25 14:00:29;;;;;;;2.35;1.73;;;;;;;;;;5034717;28;20242;-49
2021/12/25 14:02:57;;;;;;;1.90;1.80;;;;;;;;;;5035001;28;20172;-49
2021/12/25 14:05:24;;;;;;;1.83;1.73;;;;;;;;;;5034229;28;20179;-49
2021/12/25 14:07:51;;;;;;;2.10;1.50;;;;;;;;;;5038742;28;20188;-49
2021/12/25 14:10:19;;;;;;;1.40;1.30;;;;;;;;;;5039066;28;20167;-49
2021/12/25 14:12:46;;;;;;;1.73;1.63;;;;;;;;;;5038387;28;20645;-50
2021/12/25 14:15:13;;;;;;;2.85;2.00;;;;;;;;;;5038607;28;20176;-51
2021/12/25 14:17:41;;;;;;;3.83;1.95;;;;;;;;;;5038781;28;20648;-51
2021/12/25 14:20:27;;;;;;;2.00;1.90;;;;;;;;;;5039141;28;20167;-51
2021/12/25 14:23:13;;;;;;;3.40;1.88;;;;;;;;;;5038696;28;20182;-49
2021/12/25 14:25:46;;;;;;;1.90;1.80;;;;;;;;;;5037565;28;20174;-49
2021/12/25 14:28:20;;;;;;;1.67;1.55;;;;;;;;;;5038070;28;20209;-50
2021/12/25 14:31:22;;;;;;;2.47;2.28;;;;;;;;;;5037720;28;20645;-49
2021/12/25 14:33:54;;;;;;;1.70;1.60;;;;;;;;;;4996358;28;20270;-49
2021/12/25 14:36:20;;;;;;;4.20;1.75;;;;;;;;;;5030051;28;20238;-49
2021/12/25 14:38:48;;;;;;;1.85;1.75;;;;;;;;;;5037827;28;20258;-49
2021/12/25 14:41:15;;;;;;;3.28;1.50;;;;;;;;;;5037458;28;20643;-49
2021/12/25 14:43:41;;;;;;;2.00;1.90;;;;;;;;;;5037545;28;20248;-49
2021/12/25 14:46:17;;;;;;;2.22;2.05;;;;;;;;;;5037112;28;20222;-49
2021/12/25 14:48:43;;;;;;;1.70;1.60;;;;;;;;;;5037401;28;20172;-50
2021/12/25 14:51:11;;;;;;;2.20;1.90;;;;;;;;;;5037599;28;20168;-50
2021/12/25 14:53:55;;;;;;;1.60;1.50;;;;;;;;;;5037555;28;21025;-49
2021/12/25 14:56:41;;;;;;;1.58;1.48;;;;;;;;;;5036322;28;20184;-49
2021/12/25 14:59:08;;;;;;;1.83;1.50;;;;;;;;;;5036408;28;20172;-48
2021/12/25 15:01:39;;;;;;;1.88;1.75;;;;;;;;;;5036604;28;20175;-48
2021/12/25 15:04:12;;;;;;;1.83;1.73;;;;;;;;;;5036643;28;20171;-50
2021/12/25 15:07:01;;;;;;;1.95;1.85;;;;;;;;;;5035527;28;20675;-50
2021/12/25 15:09:30;;;;;;;1.65;1.55;;;;;;;;;;5036374;28;20178;-49
2021/12/25 15:12:02;;;;;;;1.88;1.77;;;;;;;;;;5035682;28;20168;-49
2021/12/25 15:14:31;;;;;;;2.05;1.88;;;;;;;;;;5035570;28;20251;-49
2021/12/25 15:17:01;;;;;;;1.95;1.63;;;;;;;;;;5036714;28;20242;-48
2021/12/25 15:19:38;;;;;;;2.05;1.90;;;;;;;;;;5035115;28;20167;-49
2021/12/25 15:22:12;;;;;;;2.92;1.70;;;;;;;;;;5035735;28;20171;-49
2021/12/25 15:24:39;;;;;;;3.22;2.38;;;;;;;;;;5035049;28;20172;-49
2021/12/25 15:27:08;;;;;;;5.32;2.08;;;;;;;;;;5035460;28;20227;-50
2021/12/25 15:29:36;;;;;;;2.22;2.03;;;;;;;;;;5034538;28;20194;-49
2021/12/25 15:32:08;;;;;;;2.15;2.05;;;;;;;;;;5034886;28;20213;-49
2021/12/25 15:34:34;;;;;;;1.75;1.65;;;;;;;;;;5033660;28;20168;-49
2021/12/25 15:37:00;;;;;;;3.92;2.25;;;;;;;;;;5034579;28;20248;-48
2021/12/25 15:39:31;;;;;;;2.45;1.60;;;;;;;;;;5034577;28;20168;-48
2021/12/25 15:42:04;;;;;;;2.67;1.80;;;;;;;;;;5034530;28;20163;-50
2021/12/25 15:44:30;;;;;;;3.00;2.47;;;;;;;;;;5034182;28;20179;-49
2021/12/25 15:46:57;;;;;;;1.80;1.70;;;;;;;;;;5034036;28;20207;-48
2021/12/25 15:49:23;;;;;;;2.03;1.92;;;;;;;;;;5034359;28;20596;-49
2021/12/25 15:51:54;;;;;;;3.23;2.93;;;;;;;;;;5033832;28;20215;-48
2021/12/25 15:54:22;;;;;;;2.58;2.20;;;;;;;;;;5034319;28;20405;-48
2021/12/25 15:56:48;;;;;;;2.78;2.15;;;;;;;;;;5033648;28;20180;-49
2021/12/25 15:59:14;;;;;;;2.55;1.92;;;;;;;;;;5034155;28;20194;-49
2021/12/25 16:01:40;;;;;;;2.03;1.92;;;;;;;;;;5034358;28;20172;-49